Wednesday, November 21, 2018, 10:57 AM GMT
Back to Local

CYHM, Hamilton Airport

Location: , , Canada Lat: 43.167
Local Time: 10:57 AM GMT (10:57 GMT) Lon: -79.933
Time Zone: GMT Elev: 777 ft

Show me the last for .
Show Decoded

2018-11-21 10:00 METAR CYHM 211000Z 24014G22KT 15SM OVC020 M00/M03 A2989 RMK SC8 SLP133 =
2018-11-21 09:00 METAR CYHM 210900Z 24018G26KT 15SM -SN OVC021 00/M03 A2989 RMK SC8 SLP132 =
2018-11-21 08:00 METAR CYHM 210800Z 24020G27KT 15SM -SN OVC024 00/M04 A2989 RMK SC8 SLP133 =
2018-11-21 07:00 METAR CYHM 210700Z 23011KT 15SM -SN OVC032 M00/M04 A2990 RMK SC8 SLP137 =
2018-11-21 06:00 METAR CYHM 210600Z 23015G22KT 15SM -SN OVC040 M00/M05 A2992 RMK SC8 SLP142 =
2018-11-21 05:00 METAR CYHM 210500Z 21013KT 15SM -SN BKN060 BKN074 M02/M07 A2994 RMK SC6AC1
                 SLP152 =
2018-11-21 04:00 METAR CYHM 210400Z 22010KT 15SM -SN BKN042 BKN120 OVC160 M03/M08 A2998 RMK
                 SC5AC1AC2 SLP165 =
2018-11-21 03:00 METAR CYHM 210300Z 22008KT 12SM -SN BKN054 OVC090 M04/M09 A3003 RMK SC6AC2
                 SLP180 =
2018-11-21 02:00 METAR CYHM 210200Z 22008KT 15SM FEW090 BKN110 BKN190 M04/M09 A3005 RMK AC2AC4AC1
                 SLP188 =
2018-11-21 01:00 METAR CYHM 210100Z 24010KT 15SM SCT028 BKN110 M04/M09 A3006 RMK SC3AC3 SLP194 =
2018-11-21 00:00 METAR CYHM 210000Z 26014KT 15SM FEW024 BKN120 M04/M09 A3006 RMK SC1AC4 SLP194 =
2018-11-20 23:33 METAR CYHM 202333Z 26014KT 15SM FEW024 SCT150 M04/M08 A3006 RMK SC2AC2 SLP192 =
2018-11-20 23:00 METAR CYHM 202300Z 26008KT 12SM -SN BKN018 OVC030 M03/M06 A3004 RMK SC5SC3
                 SLP186 =
2018-11-20 22:00 METAR CYHM 202200Z 27009G15KT 15SM OVC041 M02/M07 A3004 RMK SC8 SLP185 =
2018-11-20 21:26 METAR CYHM 202126Z 26009G15KT 15SM -SN OVC040 M02/M07 A3004 RMK SC8 SLP184 =
2018-11-20 21:00 METAR CYHM 202100Z 28010KT 15SM BKN043 OVC080 M02/M07 A3003 RMK SC7AC1 SLP183 =
2018-11-20 20:00 METAR CYHM 202000Z 28008KT 15SM FEW034 SCT070 M01/M08 A3002 RMK CU1AC2 SLP178 =
2018-11-20 19:00 METAR CYHM 201900Z 29011KT 15SM FEW023 FEW045 FEW230 M01/M07 A3001 RMK CU1SC1CI1
                 SC TR CI TR SLP176 =
2018-11-20 18:00 METAR CYHM 201800Z 31012KT 15SM FEW020 FEW060 M01/M06 A3001 RMK CU2SC1 SC TR
                 SLP175 =
2018-11-20 17:00 METAR CYHM 201700Z 29009G16KT 270V330 15SM FEW017 FEW038 FEW065 M00/M04 A3001
                 RMK SC1CU1SC1 CU TR SLP174 =
2018-11-20 16:00 METAR CYHM 201600Z 32008KT 15SM FEW015 SCT035 SCT045 BKN070 M01/M04 A3001 RMK
                 CF1SC2SC1AC3 SLP173 =
2018-11-20 15:51 METAR CYHM 201551Z 32011KT 15SM FEW010 SCT015 SCT030TCU BKN050 M01/M04 A3001 RMK
                 CF1SC2TCU1SC3 VIRGA S - SW TCU SLP173 =
2018-11-20 15:00 METAR CYHM 201500Z 33009KT 14SM -SN FEW010 FEW015 FEW025TCU SCT040 OVC045
                 M01/M03 A2999 RMK CF1CU1TCU1SC3SC4 CF TR CU TR PCPN VRY LGT TCU N - NE SLP167 =
2018-11-20 14:00 METAR CYHM 201400Z 33008KT 4SM -SN FEW012 OVC030 M01/M03 A2997 RMK CF1SC8 CF TR
                 /S01/ SLP162 =
2018-11-20 13:39 METAR CYHM 201339Z 34011KT 5SM -SN SCT010 OVC025 M01/M02 A2997 RMK SC3SC5 SLP159
                 =
2018-11-20 13:13 METAR CYHM 201313Z 34008KT 3SM -SN FEW006 BKN015 BKN020 OVC025 M01/M01 A2995 RMK
                 SF2ST4SC1NS1 SLP154 =
2018-11-20 13:00 METAR CYHM 201300Z 33008G15KT 1 1/2SM -SN SCT005 OVC011 OVC018 M01/M01 A2995 RMK
                 SF3SC5NS1 NS TR SLP153 =
2018-11-20 12:50 METAR CYHM 201250Z 32006KT 1 3/4SM -SN BKN005 BKN011 M01/M01 A2995 RMK SF6NS1
                 SLP152 =
2018-11-20 12:30 METAR CYHM 201230Z 30004KT 1SM -SN BKN005 OVC013 M01/M01 A2994 RMK SN3ST4NS1
                 SLP149 =
2018-11-20 12:15 METAR CYHM 201215Z 28004KT 1 1/2SM -SN BKN005 OVC015 M01/M01 A2993 RMK ST7NS1
                 SLP148 =
2018-11-20 12:00 METAR CYHM 201200Z 27003KT 1 3/4SM -SN OVC006 OVC015 M01/M01 A2993 RMK ST8NS1 NS
                 TR SLP147 =
2018-11-20 11:56 METAR CYHM 201156Z 27003KT 1 1/2SM -SN OVC007 OVC015 M01/M01 A2993 RMK ST8NS1 NS
                 TR SLP147 =
2018-11-20 11:38 METAR CYHM 201138Z 26002KT 1 1/2SM -SN SCT006 BKN014 OVC020 M01/M02 A2993 RMK
                 SC3SC2NS3 SLP145 =
2018-11-20 11:23 METAR CYHM 201123Z 26003KT 2 1/2SM -SN BKN006 OVC030 M01/M02 A2993 RMK SC6NS2
                 SLP145 =
2018-11-20 11:06 METAR CYHM 201106Z 27003KT 8SM -SN FEW007TCU FEW014 OVC035 M01/M02 A2992 RMK
                 TCU2SC1NS6 SC TR SLP143 =
2018-11-20 11:00 METAR CYHM 201100Z 26002KT 9SM -SN FEW027 FEW040 OVC045 M01/M02 A2992 RMK
                 CF1SC1NS6 SLP142 =

Support USWX by starting your Amazon purchase here.